Deerfield Street, New Jersey
Current Conditions -  °F | °C
As of 1:54 PM on Thursday 27 Nov 2014 (Local Time) from KMIV Reporting Station
Few Clouds Few Clouds  
Wind Chill: 37°   Ceiling: Unl
Heat Index: 43°   Visibility: 10mi
Dew Point: 30°   Wind: 12mph
Humidity: 60%   Direction: 320°NW
Pressure: 30.01"   Gusts: NA
Location:  39.53°N, 75.23°W
Report Text: KMIV 271854Z AUTO 32010KT 10SM FEW027 FEW065 06/M01 A3001 RMK AO2 SLP161 T00611011
Loading
Personal Weather Stations






























Interactive Weather Map New forecast layout! Learn more

10-Day Weather Forecast

Advertisements
Track Severe Weather on mobile